sensor_id;sensor_type;location;lat;lon;timestamp;pressure;altitude;pressure_sealevel;temperature;humidity
64713;BME280;51140;45.340;5.980;2022-07-05T00:00:57;98625.03;;;23.97;100.00
64713;BME280;51140;45.340;5.980;2022-07-05T00:03:22;98630.31;;;24.06;100.00
64713;BME280;51140;45.340;5.980;2022-07-05T00:05:48;98634.47;;;23.91;100.00
64713;BME280;51140;45.340;5.980;2022-07-05T00:08:14;98646.78;;;23.92;100.00
64713;BME280;51140;45.340;5.980;2022-07-05T00:10:39;98636.31;;;24.09;100.00
64713;BME280;51140;45.340;5.980;2022-07-05T00:13:06;98647.19;;;24.15;100.00
64713;BME280;51140;45.340;5.980;2022-07-05T00:15:31;98644.22;;;24.36;100.00
64713;BME280;51140;45.340;5.980;2022-07-05T00:17:57;98648.50;;;24.29;100.00
64713;BME280;51140;45.340;5.980;2022-07-05T00:20:22;98648.53;;;24.19;100.00
64713;BME280;51140;45.340;5.980;2022-07-05T00:22:48;98654.13;;;24.44;100.00
64713;BME280;51140;45.340;5.980;2022-07-05T00:25:14;98646.66;;;24.47;100.00
64713;BME280;51140;45.340;5.980;2022-07-05T00:27:40;98655.25;;;24.05;100.00
64713;BME280;51140;45.340;5.980;2022-07-05T00:30:06;98661.97;;;23.64;100.00
64713;BME280;51140;45.340;5.980;2022-07-05T00:32:32;98664.69;;;23.45;100.00
64713;BME280;51140;45.340;5.980;2022-07-05T00:34:57;98664.78;;;23.63;100.00
64713;BME280;51140;45.340;5.980;2022-07-05T00:37:23;98668.81;;;23.30;100.00
64713;BME280;51140;45.340;5.980;2022-07-05T00:39:48;98666.63;;;23.16;100.00
64713;BME280;51140;45.340;5.980;2022-07-05T00:42:13;98670.56;;;23.11;100.00
64713;BME280;51140;45.340;5.980;2022-07-05T00:44:40;98672.13;;;23.04;100.00
64713;BME280;51140;45.340;5.980;2022-07-05T00:47:08;98663.75;;;22.99;100.00
64713;BME280;51140;45.340;5.980;2022-07-05T00:49:34;98662.91;;;22.99;100.00
64713;BME280;51140;45.340;5.980;2022-07-05T00:52:01;98670.94;;;22.89;100.00
64713;BME280;51140;45.340;5.980;2022-07-05T00:54:28;98664.88;;;22.97;100.00
64713;BME280;51140;45.340;5.980;2022-07-05T00:56:54;98664.50;;;23.19;100.00
64713;BME280;51140;45.340;5.980;2022-07-05T00:59:20;98667.13;;;22.92;100.00
64713;BME280;51140;45.340;5.980;2022-07-05T01:01:45;98670.94;;;23.17;100.00
64713;BME280;51140;45.340;5.980;2022-07-05T01:04:11;98657.22;;;23.58;100.00
64713;BME280;51140;45.340;5.980;2022-07-05T01:06:39;98651.88;;;23.68;100.00
64713;BME280;51140;45.340;5.980;2022-07-05T01:09:05;98652.00;;;23.66;100.00
64713;BME280;51140;45.340;5.980;2022-07-05T01:11:30;98647.09;;;23.89;100.00
64713;BME280;51140;45.340;5.980;2022-07-05T01:13:58;98652.94;;;23.75;100.00
64713;BME280;51140;45.340;5.980;2022-07-05T01:16:24;98651.59;;;23.61;100.00
64713;BME280;51140;45.340;5.980;2022-07-05T01:18:50;98649.81;;;23.62;100.00
64713;BME280;51140;45.340;5.980;2022-07-05T01:21:17;98653.16;;;23.64;100.00
64713;BME280;51140;45.340;5.980;2022-07-05T01:23:45;98659.63;;;23.14;100.00
64713;BME280;51140;45.340;5.980;2022-07-05T01:26:11;98665.22;;;22.84;100.00
64713;BME280;51140;45.340;5.980;2022-07-05T01:28:36;98671.50;;;22.64;100.00
64713;BME280;51140;45.340;5.980;2022-07-05T01:31:02;98670.81;;;22.62;100.00
64713;BME280;51140;45.340;5.980;2022-07-05T01:33:29;98672.75;;;22.89;100.00
64713;BME280;51140;45.340;5.980;2022-07-05T01:35:56;98672.75;;;22.89;100.00
64713;BME280;51140;45.340;5.980;2022-07-05T01:38:21;98669.69;;;22.84;100.00
64713;BME280;51140;45.340;5.980;2022-07-05T01:40:47;98676.91;;;23.01;100.00
64713;BME280;51140;45.340;5.980;2022-07-05T01:43:20;98678.31;;;22.95;100.00
64713;BME280;51140;45.340;5.980;2022-07-05T01:45:46;98672.72;;;22.98;100.00
64713;BME280;51140;45.340;5.980;2022-07-05T01:48:14;98676.31;;;23.07;100.00
64713;BME280;51140;45.340;5.980;2022-07-05T01:50:44;98676.63;;;22.94;100.00
64713;BME280;51140;45.340;5.980;2022-07-05T01:53:27;98683.03;;;23.01;100.00
64713;BME280;51140;45.340;5.980;2022-07-05T01:55:52;98678.31;;;22.95;100.00
64713;BME280;51140;45.340;5.980;2022-07-05T01:58:18;98691.91;;;22.54;100.00
64713;BME280;51140;45.340;5.980;2022-07-05T02:00:45;98682.22;;;23.01;100.00
64713;BME280;51140;45.340;5.980;2022-07-05T02:03:11;98684.56;;;23.41;100.00
64713;BME280;51140;45.340;5.980;2022-07-05T02:05:36;98677.16;;;23.44;100.00
64713;BME280;51140;45.340;5.980;2022-07-05T02:08:02;98680.41;;;23.38;100.00
64713;BME280;51140;45.340;5.980;2022-07-05T02:10:27;98674.63;;;23.43;100.00
64713;BME280;51140;45.340;5.980;2022-07-05T02:12:53;98687.38;;;23.02;100.00
64713;BME280;51140;45.340;5.980;2022-07-05T02:15:18;98698.28;;;22.80;100.00
64713;BME280;51140;45.340;5.980;2022-07-05T02:17:43;98693.88;;;22.61;100.00
64713;BME280;51140;45.340;5.980;2022-07-05T02:20:09;98691.75;;;22.65;100.00
64713;BME280;51140;45.340;5.980;2022-07-05T02:22:35;98697.22;;;22.54;100.00
64713;BME280;51140;45.340;5.980;2022-07-05T02:25:00;98695.81;;;22.40;100.00
64713;BME280;51140;45.340;5.980;2022-07-05T02:27:25;98692.06;;;22.42;100.00
64713;BME280;51140;45.340;5.980;2022-07-05T02:29:52;98684.06;;;22.81;100.00
64713;BME280;51140;45.340;5.980;2022-07-05T02:32:17;98681.28;;;23.20;100.00
64713;BME280;51140;45.340;5.980;2022-07-05T02:34:42;98690.94;;;23.21;100.00
64713;BME280;51140;45.340;5.980;2022-07-05T02:37:08;98683.34;;;22.98;100.00
64713;BME280;51140;45.340;5.980;2022-07-05T02:39:33;98692.53;;;23.04;100.00
64713;BME280;51140;45.340;5.980;2022-07-05T02:41:58;98685.22;;;23.16;100.00
64713;BME280;51140;45.340;5.980;2022-07-05T02:44:24;98685.56;;;23.03;100.00
64713;BME280;51140;45.340;5.980;2022-07-05T02:46:49;98688.28;;;22.84;100.00
64713;BME280;51140;45.340;5.980;2022-07-05T02:49:14;98691.47;;;22.97;100.00
64713;BME280;51140;45.340;5.980;2022-07-05T02:51:40;98694.84;;;22.89;100.00
64713;BME280;51140;45.340;5.980;2022-07-05T02:54:05;98697.78;;;22.86;100.00
64713;BME280;51140;45.340;5.980;2022-07-05T02:56:31;98698.47;;;22.69;100.00
64713;BME280;51140;45.340;5.980;2022-07-05T02:58:56;98706.31;;;22.61;100.00
64713;BME280;51140;45.340;5.980;2022-07-05T03:01:21;98715.09;;;22.32;100.00
64713;BME280;51140;45.340;5.980;2022-07-05T03:03:47;98708.22;;;22.78;100.00
64713;BME280;51140;45.340;5.980;2022-07-05T03:06:12;98696.91;;;22.95;100.00
64713;BME280;51140;45.340;5.980;2022-07-05T03:08:38;98700.28;;;22.68;100.00
64713;BME280;51140;45.340;5.980;2022-07-05T03:11:03;98712.16;;;22.35;100.00
64713;BME280;51140;45.340;5.980;2022-07-05T03:13:29;98718.19;;;22.37;100.00
64713;BME280;51140;45.340;5.980;2022-07-05T03:15:54;98715.41;;;22.87;100.00
64713;BME280;51140;45.340;5.980;2022-07-05T03:18:19;98715.09;;;22.61;100.00
64713;BME280;51140;45.340;5.980;2022-07-05T03:20:45;98713.16;;;22.54;100.00
64713;BME280;51140;45.340;5.980;2022-07-05T03:23:10;98719.56;;;22.41;100.00
64713;BME280;51140;45.340;5.980;2022-07-05T03:25:36;98715.53;;;22.57;100.00
64713;BME280;51140;45.340;5.980;2022-07-05T03:28:01;98727.69;;;22.40;100.00
64713;BME280;51140;45.340;5.980;2022-07-05T03:30:26;98716.63;;;22.73;100.00
64713;BME280;51140;45.340;5.980;2022-07-05T03:32:52;98715.97;;;22.52;100.00
64713;BME280;51140;45.340;5.980;2022-07-05T03:35:17;98718.88;;;22.59;100.00
64713;BME280;51140;45.340;5.980;2022-07-05T03:37:43;98726.00;;;22.39;100.00
64713;BME280;51140;45.340;5.980;2022-07-05T03:40:08;98744.16;;;22.14;100.00
64713;BME280;51140;45.340;5.980;2022-07-05T03:42:34;98746.31;;;22.00;100.00
64713;BME280;51140;45.340;5.980;2022-07-05T03:45:01;98753.94;;;22.14;100.00
64713;BME280;51140;45.340;5.980;2022-07-05T03:47:27;98753.66;;;22.17;100.00
64713;BME280;51140;45.340;5.980;2022-07-05T03:49:54;98743.34;;;22.52;100.00
64713;BME280;51140;45.340;5.980;2022-07-05T03:52:19;98736.66;;;22.87;100.00
64713;BME280;51140;45.340;5.980;2022-07-05T03:54:44;98733.56;;;22.92;100.00
64713;BME280;51140;45.340;5.980;2022-07-05T03:57:11;98732.09;;;23.17;100.00
64713;BME280;51140;45.340;5.980;2022-07-05T03:59:36;98731.44;;;23.05;100.00
64713;BME280;51140;45.340;5.980;2022-07-05T04:02:02;98742.91;;;22.67;100.00
64713;BME280;51140;45.340;5.980;2022-07-05T04:04:27;98754.81;;;22.53;100.00
64713;BME280;51140;45.340;5.980;2022-07-05T04:06:53;98762.06;;;22.51;100.00
64713;BME280;51140;45.340;5.980;2022-07-05T04:09:18;98752.28;;;22.61;100.00
64713;BME280;51140;45.340;5.980;2022-07-05T04:11:43;98756.75;;;22.61;100.00
64713;BME280;51140;45.340;5.980;2022-07-05T04:14:09;98761.22;;;22.70;100.00
64713;BME280;51140;45.340;5.980;2022-07-05T04:16:35;98757.19;;;22.85;100.00
64713;BME280;51140;45.340;5.980;2022-07-05T04:19:00;98765.84;;;22.48;100.00
64713;BME280;51140;45.340;5.980;2022-07-05T04:21:25;98760.66;;;22.76;100.00
64713;BME280;51140;45.340;5.980;2022-07-05T04:23:51;98762.63;;;22.64;100.00
64713;BME280;51140;45.340;5.980;2022-07-05T04:26:16;98774.38;;;22.62;100.00
64713;BME280;51140;45.340;5.980;2022-07-05T04:28:42;98777.69;;;22.25;100.00
64713;BME280;51140;45.340;5.980;2022-07-05T04:31:08;98773.63;;;22.40;100.00
64713;BME280;51140;45.340;5.980;2022-07-05T04:33:34;98777.44;;;22.47;100.00
64713;BME280;51140;45.340;5.980;2022-07-05T04:35:59;98773.38;;;22.53;100.00
64713;BME280;51140;45.340;5.980;2022-07-05T04:38:24;98769.88;;;22.72;100.00
64713;BME280;51140;45.340;5.980;2022-07-05T04:40:50;98769.75;;;22.73;100.00
64713;BME280;51140;45.340;5.980;2022-07-05T04:43:15;98774.53;;;22.89;100.00
64713;BME280;51140;45.340;5.980;2022-07-05T04:45:40;98767.25;;;22.91;100.00
64713;BME280;51140;45.340;5.980;2022-07-05T04:48:06;98783.44;;;22.69;100.00
64713;BME280;51140;45.340;5.980;2022-07-05T04:50:31;98784.41;;;22.77;100.00
64713;BME280;51140;45.340;5.980;2022-07-05T04:52:57;98778.72;;;22.92;100.00
64713;BME280;51140;45.340;5.980;2022-07-05T04:55:22;98771.41;;;23.13;100.00
64713;BME280;51140;45.340;5.980;2022-07-05T04:57:47;98773.78;;;23.06;100.00
64713;BME280;51140;45.340;5.980;2022-07-05T05:00:13;98778.97;;;23.08;100.00
64713;BME280;51140;45.340;5.980;2022-07-05T05:02:40;98782.06;;;22.94;100.00
64713;BME280;51140;45.340;5.980;2022-07-05T05:05:06;98792.25;;;22.60;100.00
64713;BME280;51140;45.340;5.980;2022-07-05T05:07:31;98800.19;;;22.40;100.00
64713;BME280;51140;45.340;5.980;2022-07-05T05:09:58;98798.53;;;22.49;100.00
64713;BME280;51140;45.340;5.980;2022-07-05T05:12:23;98802.84;;;22.40;100.00
64713;BME280;51140;45.340;5.980;2022-07-05T05:14:50;98792.81;;;22.73;100.00
64713;BME280;51140;45.340;5.980;2022-07-05T05:17:15;98801.88;;;22.80;100.00
64713;BME280;51140;45.340;5.980;2022-07-05T05:19:40;98797.31;;;22.92;100.00
64713;BME280;51140;45.340;5.980;2022-07-05T05:22:06;98802.19;;;23.06;100.00
64713;BME280;51140;45.340;5.980;2022-07-05T05:24:31;98797.31;;;23.01;100.00
64713;BME280;51140;45.340;5.980;2022-07-05T05:27:00;98800.81;;;23.02;100.00
64713;BME280;51140;45.340;5.980;2022-07-05T05:29:25;98787.25;;;22.95;100.00
64713;BME280;51140;45.340;5.980;2022-07-05T05:31:51;98802.31;;;23.14;100.00
64713;BME280;51140;45.340;5.980;2022-07-05T05:34:16;98800.25;;;22.98;100.00
64713;BME280;51140;45.340;5.980;2022-07-05T05:36:41;98800.91;;;23.10;100.00
64713;BME280;51140;45.340;5.980;2022-07-05T05:39:07;98802.44;;;23.12;100.00
64713;BME280;51140;45.340;5.980;2022-07-05T05:41:32;98800.06;;;23.29;100.00
64713;BME280;51140;45.340;5.980;2022-07-05T05:43:57;98802.25;;;23.43;100.00
64713;BME280;51140;45.340;5.980;2022-07-05T05:46:23;98800.47;;;23.81;100.00
64713;BME280;51140;45.340;5.980;2022-07-05T05:48:48;98788.47;;;24.04;100.00
64713;BME280;51140;45.340;5.980;2022-07-05T05:51:14;98788.56;;;24.12;100.00
64713;BME280;51140;45.340;5.980;2022-07-05T05:53:39;98786.09;;;24.28;100.00
64713;BME280;51140;45.340;5.980;2022-07-05T05:56:04;98776.38;;;24.10;100.00
64713;BME280;51140;45.340;5.980;2022-07-05T05:58:30;98786.66;;;24.22;100.00
64713;BME280;51140;45.340;5.980;2022-07-05T06:00:55;98789.53;;;24.38;100.00
64713;BME280;51140;45.340;5.980;2022-07-05T06:03:24;98784.97;;;24.31;100.00
64713;BME280;51140;45.340;5.980;2022-07-05T06:05:50;98786.78;;;24.30;100.00
64713;BME280;51140;45.340;5.980;2022-07-05T06:08:16;98789.19;;;24.24;100.00
64713;BME280;51140;45.340;5.980;2022-07-05T06:10:42;98793.47;;;24.34;100.00
64713;BME280;51140;45.340;5.980;2022-07-05T06:13:09;98787.91;;;24.28;100.00
64713;BME280;51140;45.340;5.980;2022-07-05T06:15:36;98785.00;;;24.21;100.00
64713;BME280;51140;45.340;5.980;2022-07-05T06:18:02;98796.72;;;24.01;100.00
64713;BME280;51140;45.340;5.980;2022-07-05T06:20:30;98804.06;;;23.89;100.00
64713;BME280;51140;45.340;5.980;2022-07-05T06:22:57;98795.06;;;23.72;100.00
64713;BME280;51140;45.340;5.980;2022-07-05T06:25:23;98799.16;;;23.94;100.00
64713;BME280;51140;45.340;5.980;2022-07-05T06:27:53;98789.88;;;24.26;100.00
64713;BME280;51140;45.340;5.980;2022-07-05T06:30:19;98797.44;;;24.30;100.00
64713;BME280;51140;45.340;5.980;2022-07-05T06:32:47;98795.59;;;24.31;100.00
64713;BME280;51140;45.340;5.980;2022-07-05T06:35:13;98795.34;;;24.24;100.00
64713;BME280;51140;45.340;5.980;2022-07-05T06:40:08;98790.44;;;24.29;100.00
64713;BME280;51140;45.340;5.980;2022-07-05T06:42:34;98796.53;;;24.12;100.00
64713;BME280;51140;45.340;5.980;2022-07-05T06:44:59;98793.72;;;24.14;100.00
64713;BME280;51140;45.340;5.980;2022-07-05T06:47:25;98791.59;;;24.17;100.00
64713;BME280;51140;45.340;5.980;2022-07-05T06:49:50;98793.34;;;24.09;100.00
64713;BME280;51140;45.340;5.980;2022-07-05T06:52:15;98797.22;;;24.14;100.00
64713;BME280;51140;45.340;5.980;2022-07-05T06:54:41;98796.25;;;24.15;100.00
64713;BME280;51140;45.340;5.980;2022-07-05T06:57:06;98789.78;;;24.18;100.00
64713;BME280;51140;45.340;5.980;2022-07-05T06:59:31;98789.63;;;24.19;100.00
64713;BME280;51140;45.340;5.980;2022-07-05T07:01:57;98789.03;;;24.53;100.00
64713;BME280;51140;45.340;5.980;2022-07-05T07:04:22;98782.53;;;24.73;100.00
64713;BME280;51140;45.340;5.980;2022-07-05T07:06:47;98781.63;;;24.47;100.00
64713;BME280;51140;45.340;5.980;2022-07-05T07:09:13;98789.53;;;24.11;100.00
64713;BME280;51140;45.340;5.980;2022-07-05T07:11:46;98775.31;;;24.83;100.00
64713;BME280;51140;45.340;5.980;2022-07-05T07:14:12;98772.31;;;25.82;100.00
64713;BME280;51140;45.340;5.980;2022-07-05T07:16:37;98754.19;;;26.68;100.00
64713;BME280;51140;45.340;5.980;2022-07-05T07:19:02;98756.28;;;28.01;100.00
64713;BME280;51140;45.340;5.980;2022-07-05T07:21:28;98754.78;;;27.99;100.00
64713;BME280;51140;45.340;5.980;2022-07-05T07:23:53;98750.38;;;28.14;100.00
64713;BME280;51140;45.340;5.980;2022-07-05T07:26:19;98746.22;;;28.80;100.00
64713;BME280;51140;45.340;5.980;2022-07-05T07:28:44;98745.84;;;28.91;100.00
64713;BME280;51140;45.340;5.980;2022-07-05T07:31:10;98745.00;;;29.28;100.00
64713;BME280;51140;45.340;5.980;2022-07-05T07:33:35;98747.78;;;29.35;100.00
64713;BME280;51140;45.340;5.980;2022-07-05T07:36:01;98743.16;;;29.73;100.00
64713;BME280;51140;45.340;5.980;2022-07-05T07:38:26;98745.72;;;30.68;100.00
64713;BME280;51140;45.340;5.980;2022-07-05T07:40:52;98734.78;;;30.91;100.00
64713;BME280;51140;45.340;5.980;2022-07-05T07:43:17;98732.09;;;31.88;100.00
64713;BME280;51140;45.340;5.980;2022-07-05T07:45:43;98730.41;;;32.28;100.00
64713;BME280;51140;45.340;5.980;2022-07-05T07:48:08;98730.63;;;31.79;100.00
64713;BME280;51140;45.340;5.980;2022-07-05T07:50:34;98732.13;;;32.76;100.00
64713;BME280;51140;45.340;5.980;2022-07-05T07:53:00;98730.19;;;32.30;100.00
64713;BME280;51140;45.340;5.980;2022-07-05T07:55:25;98726.69;;;31.82;100.00
64713;BME280;51140;45.340;5.980;2022-07-05T07:57:51;98721.34;;;31.95;100.00
64713;BME280;51140;45.340;5.980;2022-07-05T08:00:16;98721.34;;;31.95;100.00
64713;BME280;51140;45.340;5.980;2022-07-05T08:02:42;98723.19;;;32.49;100.00
64713;BME280;51140;45.340;5.980;2022-07-05T08:05:07;98713.88;;;31.56;100.00
64713;BME280;51140;45.340;5.980;2022-07-05T08:07:35;98721.81;;;30.37;100.00
64713;BME280;51140;45.340;5.980;2022-07-05T08:10:00;98723.53;;;29.58;100.00
64713;BME280;51140;45.340;5.980;2022-07-05T08:12:26;98711.88;;;28.84;100.00
64713;BME280;51140;45.340;5.980;2022-07-05T08:14:51;98717.34;;;28.22;100.00
64713;BME280;51140;45.340;5.980;2022-07-05T08:17:17;98712.81;;;28.22;100.00
64713;BME280;51140;45.340;5.980;2022-07-05T08:19:46;98707.59;;;28.29;100.00
64713;BME280;51140;45.340;5.980;2022-07-05T08:22:29;98706.84;;;27.81;100.00
64713;BME280;51140;45.340;5.980;2022-07-05T08:24:55;98707.75;;;27.96;100.00
64713;BME280;51140;45.340;5.980;2022-07-05T08:27:20;98701.22;;;28.30;100.00
64713;BME280;51140;45.340;5.980;2022-07-05T08:29:45;98698.00;;;28.12;100.00
64713;BME280;51140;45.340;5.980;2022-07-05T08:32:11;98692.94;;;28.17;100.00
64713;BME280;51140;45.340;5.980;2022-07-05T08:34:37;98696.25;;;28.19;100.00
64713;BME280;51140;45.340;5.980;2022-07-05T08:37:03;98692.53;;;28.51;100.00
64713;BME280;51140;45.340;5.980;2022-07-05T08:39:28;98686.84;;;28.68;100.00
64713;BME280;51140;45.340;5.980;2022-07-05T08:41:55;98686.31;;;28.96;100.00
64713;BME280;51140;45.340;5.980;2022-07-05T08:44:23;98688.78;;;28.37;100.00
64713;BME280;51140;45.340;5.980;2022-07-05T08:46:50;98683.97;;;28.55;100.00
64713;BME280;51140;45.340;5.980;2022-07-05T08:49:23;98682.03;;;28.87;100.00
64713;BME280;51140;45.340;5.980;2022-07-05T08:51:49;98682.88;;;28.87;100.00
64713;BME280;51140;45.340;5.980;2022-07-05T08:54:15;98675.13;;;29.07;100.00
64713;BME280;51140;45.340;5.980;2022-07-05T08:56:43;98670.13;;;28.66;100.00
64713;BME280;51140;45.340;5.980;2022-07-05T08:59:08;98675.72;;;28.42;100.00
64713;BME280;51140;45.340;5.980;2022-07-05T09:01:35;98677.13;;;28.53;100.00
64713;BME280;51140;45.340;5.980;2022-07-05T09:04:06;98679.34;;;28.87;100.00
64713;BME280;51140;45.340;5.980;2022-07-05T09:06:36;98667.72;;;29.09;100.00
64713;BME280;51140;45.340;5.980;2022-07-05T09:09:03;98670.59;;;29.67;100.00
64713;BME280;51140;45.340;5.980;2022-07-05T09:11:40;98669.19;;;29.71;100.00
64713;BME280;51140;45.340;5.980;2022-07-05T09:14:17;98670.13;;;29.33;100.00
64713;BME280;51140;45.340;5.980;2022-07-05T09:16:43;98669.00;;;29.43;100.00
64713;BME280;51140;45.340;5.980;2022-07-05T09:19:08;98667.75;;;29.89;100.00
64713;BME280;51140;45.340;5.980;2022-07-05T09:21:35;98665.50;;;30.08;100.00
64713;BME280;51140;45.340;5.980;2022-07-05T09:24:01;98674.66;;;30.13;100.00
64713;BME280;51140;45.340;5.980;2022-07-05T09:31:39;98664.03;;;30.05;100.00
64713;BME280;51140;45.340;5.980;2022-07-05T09:34:09;98671.91;;;30.28;100.00
64713;BME280;51140;45.340;5.980;2022-07-05T09:36:52;98660.38;;;30.55;100.00
64713;BME280;51140;45.340;5.980;2022-07-05T09:42:19;98654.59;;;30.80;100.00
64713;BME280;51140;45.340;5.980;2022-07-05T09:44:56;98649.56;;;30.70;100.00
64713;BME280;51140;45.340;5.980;2022-07-05T09:47:27;98648.56;;;30.78;100.00
64713;BME280;51140;45.340;5.980;2022-07-05T09:49:54;98648.69;;;30.91;100.00
64713;BME280;51140;45.340;5.980;2022-07-05T09:55:07;98641.41;;;30.85;100.00
64713;BME280;51140;45.340;5.980;2022-07-05T09:57:34;98632.75;;;30.90;100.00
64713;BME280;51140;45.340;5.980;2022-07-05T10:00:03;98642.31;;;31.27;100.00
64713;BME280;51140;45.340;5.980;2022-07-05T10:02:35;98643.00;;;31.42;100.00
64713;BME280;51140;45.340;5.980;2022-07-05T10:05:17;98638.25;;;31.44;100.00
64713;BME280;51140;45.340;5.980;2022-07-05T10:07:46;98635.66;;;31.23;100.00
64713;BME280;51140;45.340;5.980;2022-07-05T10:10:15;98639.66;;;31.05;100.00
64713;BME280;51140;45.340;5.980;2022-07-05T10:12:42;98629.31;;;31.37;100.00
64713;BME280;51140;45.340;5.980;2022-07-05T10:15:10;98631.47;;;31.61;100.00
64713;BME280;51140;45.340;5.980;2022-07-05T10:17:40;98635.84;;;31.62;100.00
64713;BME280;51140;45.340;5.980;2022-07-05T10:20:12;98640.81;;;31.65;100.00
64713;BME280;51140;45.340;5.980;2022-07-05T10:22:39;98629.53;;;31.42;100.00
64713;BME280;51140;45.340;5.980;2022-07-05T10:25:06;98625.84;;;31.49;100.00
64713;BME280;51140;45.340;5.980;2022-07-05T10:27:32;98628.66;;;31.76;100.00
64713;BME280;51140;45.340;5.980;2022-07-05T10:30:01;98637.19;;;31.93;100.00
64713;BME280;51140;45.340;5.980;2022-07-05T10:32:28;98630.16;;;31.98;100.00
64713;BME280;51140;45.340;5.980;2022-07-05T10:34:54;98629.28;;;31.78;100.00
64713;BME280;51140;45.340;5.980;2022-07-05T10:37:24;98629.44;;;31.70;100.00
64713;BME280;51140;45.340;5.980;2022-07-05T10:39:51;98625.38;;;31.87;100.00
64713;BME280;51140;45.340;5.980;2022-07-05T10:42:17;98632.94;;;31.64;100.00
64713;BME280;51140;45.340;5.980;2022-07-05T10:44:44;98626.72;;;31.63;100.00
64713;BME280;51140;45.340;5.980;2022-07-05T10:47:10;98625.97;;;31.83;100.00
64713;BME280;51140;45.340;5.980;2022-07-05T10:49:36;98625.19;;;32.02;100.00
64713;BME280;51140;45.340;5.980;2022-07-05T10:52:03;98624.75;;;31.98;100.00
64713;BME280;51140;45.340;5.980;2022-07-05T10:54:29;98624.97;;;31.97;100.00
64713;BME280;51140;45.340;5.980;2022-07-05T10:57:23;98624.81;;;32.18;100.00
64713;BME280;51140;45.340;5.980;2022-07-05T11:00:10;98615.72;;;32.32;100.00
64713;BME280;51140;45.340;5.980;2022-07-05T11:02:36;98617.13;;;32.08;100.00
64713;BME280;51140;45.340;5.980;2022-07-05T11:05:02;98611.69;;;32.02;100.00
64713;BME280;51140;45.340;5.980;2022-07-05T11:08:02;98607.41;;;32.34;100.00
64713;BME280;51140;45.340;5.980;2022-07-05T11:10:28;98605.56;;;32.28;100.00
64713;BME280;51140;45.340;5.980;2022-07-05T11:12:56;98612.00;;;32.53;100.00
64713;BME280;51140;45.340;5.980;2022-07-05T11:15:22;98606.19;;;32.50;100.00
64713;BME280;51140;45.340;5.980;2022-07-05T11:17:47;98595.81;;;32.40;100.00
64713;BME280;51140;45.340;5.980;2022-07-05T11:20:17;98598.25;;;32.08;100.00
64713;BME280;51140;45.340;5.980;2022-07-05T11:25:31;98602.81;;;32.21;100.00
64713;BME280;51140;45.340;5.980;2022-07-05T11:30:27;98589.16;;;32.36;100.00
64713;BME280;51140;45.340;5.980;2022-07-05T11:32:52;98594.16;;;32.32;100.00
64713;BME280;51140;45.340;5.980;2022-07-05T11:35:19;98585.22;;;32.25;100.00
64713;BME280;51140;45.340;5.980;2022-07-05T11:38:05;98592.91;;;32.61;100.00
64713;BME280;51140;45.340;5.980;2022-07-05T11:40:36;98589.19;;;32.49;100.00
64713;BME280;51140;45.340;5.980;2022-07-05T11:43:03;98583.16;;;32.47;100.00
64713;BME280;51140;45.340;5.980;2022-07-05T11:45:30;98582.13;;;32.55;100.00
64713;BME280;51140;45.340;5.980;2022-07-05T11:47:55;98579.84;;;32.25;100.00
64713;BME280;51140;45.340;5.980;2022-07-05T11:50:27;98573.75;;;31.77;100.00
64713;BME280;51140;45.340;5.980;2022-07-05T11:52:53;98586.03;;;32.13;100.00
64713;BME280;51140;45.340;5.980;2022-07-05T11:55:18;98581.91;;;32.50;100.00
64713;BME280;51140;45.340;5.980;2022-07-05T11:57:49;98577.09;;;32.71;100.00
64713;BME280;51140;45.340;5.980;2022-07-05T12:00:34;98577.75;;;32.60;100.00
64713;BME280;51140;45.340;5.980;2022-07-05T12:03:13;98574.44;;;32.38;100.00
64713;BME280;51140;45.340;5.980;2022-07-05T12:05:38;98568.16;;;31.78;100.00
64713;BME280;51140;45.340;5.980;2022-07-05T12:08:05;98568.00;;;32.33;100.00
64713;BME280;51140;45.340;5.980;2022-07-05T12:10:31;98564.50;;;32.52;100.00
64713;BME280;51140;45.340;5.980;2022-07-05T12:13:15;98558.28;;;32.52;100.00
64713;BME280;51140;45.340;5.980;2022-07-05T12:15:40;98555.34;;;32.53;100.00
64713;BME280;51140;45.340;5.980;2022-07-05T12:18:07;98558.47;;;32.50;100.00
64713;BME280;51140;45.340;5.980;2022-07-05T12:20:35;98560.56;;;32.48;100.00
64713;BME280;51140;45.340;5.980;2022-07-05T12:23:02;98561.34;;;32.68;100.00
64713;BME280;51140;45.340;5.980;2022-07-05T12:25:30;98560.13;;;32.31;100.00
64713;BME280;51140;45.340;5.980;2022-07-05T12:27:57;98547.28;;;32.47;100.00
64713;BME280;51140;45.340;5.980;2022-07-05T12:30:23;98559.94;;;32.26;100.00
64713;BME280;51140;45.340;5.980;2022-07-05T12:32:54;98554.34;;;32.48;100.00
64713;BME280;51140;45.340;5.980;2022-07-05T12:35:27;98552.41;;;32.68;100.00
64713;BME280;51140;45.340;5.980;2022-07-05T12:37:53;98550.56;;;32.68;100.00
64713;BME280;51140;45.340;5.980;2022-07-05T12:40:21;98549.34;;;32.31;100.00
64713;BME280;51140;45.340;5.980;2022-07-05T12:42:47;98542.31;;;32.44;100.00
64713;BME280;51140;45.340;5.980;2022-07-05T12:45:24;98546.41;;;32.66;100.00
64713;BME280;51140;45.340;5.980;2022-07-05T12:47:53;98544.75;;;32.65;100.00
64713;BME280;51140;45.340;5.980;2022-07-05T12:50:20;98545.81;;;32.31;100.00
64713;BME280;51140;45.340;5.980;2022-07-05T12:53:05;98551.22;;;32.37;100.00
64713;BME280;51140;45.340;5.980;2022-07-05T12:55:57;98541.47;;;32.30;100.00
64713;BME280;51140;45.340;5.980;2022-07-05T12:58:51;98541.03;;;32.39;100.00
64713;BME280;51140;45.340;5.980;2022-07-05T13:01:22;98535.84;;;32.18;100.00
64713;BME280;51140;45.340;5.980;2022-07-05T13:06:42;98540.63;;;32.23;100.00
64713;BME280;51140;45.340;5.980;2022-07-05T13:09:09;98534.41;;;32.09;100.00
64713;BME280;51140;45.340;5.980;2022-07-05T13:11:35;98533.59;;;32.35;100.00